Somerton, Arizona
Current Conditions -  °F | °C
As of 11:57 AM on Sunday 23 Nov 2014 (Local Time) from KNYL Reporting Station
Broken Clouds Broken Clouds  
Wind Chill: 75°   Ceiling: 30000
Heat Index: 75°   Visibility: 10mi
Dew Point: 20°   Wind: 18mph
Humidity: 13%   Direction: 20°NNE
Pressure: 30.13"   Gusts: 28mph
Location:  32.6°N, 114.71°W
Report Text: KNYL 231857Z 02016G24KT 10SM BKN300 24/M07 A3013 RMK AO2 PK WND 36029/1816 SLP201 T02391067 $
Loading
Personal Weather Stations






























Interactive Weather Map New forecast layout! Learn more

10-Day Weather Forecast

Advertisements
Track Severe Weather on mobile